Terminal Aerodrome Forecast
Issued by NWS

Home | Current Version | Previous Version | Text Only | Print | Product List | Glossary On
Versions: 1 2 3 4 5 6 7 8 9 10 11 12 13 14 15 16 17 18 19 20 21 22 23
551
FTUS44 KLZK 250843 AAB
TAFLIT
TAF AMD
KLIT 250843Z 2509/2606 12008KT P6SM VCSH SCT020 BKN050 OVC250
      WS020/22040KT
      TEMPO 2509/2512 6SM BR OVC030
     FM251400 17012G18KT P6SM VCSH BKN050 OVC100
     FM251800 25010G20KT P6SM BKN050 BKN250=

USA.gov is the U.S. government's official web portal to all federal, state and local government web resources and services.